createdAt,value
2023-04-10T00:00:56.978Z,35.97
2023-04-10T00:03:25.441Z,38.53
2023-04-10T00:05:55.059Z,37.43
2023-04-10T00:08:23.666Z,38.40
2023-04-10T00:10:51.670Z,38.80
2023-04-10T00:13:19.680Z,38.83
2023-04-10T00:15:49.540Z,38.70
2023-04-10T00:18:17.757Z,37.63
2023-04-10T00:20:46.052Z,36.47
2023-04-10T00:23:15.461Z,35.30
2023-04-10T00:25:43.476Z,38.90
2023-04-10T00:28:11.484Z,38.30
2023-04-10T00:30:39.476Z,37.50
2023-04-10T00:33:07.490Z,37.67
2023-04-10T00:35:35.666Z,40.83
2023-04-10T00:38:03.960Z,38.53
2023-04-10T00:40:33.366Z,40.40
2023-04-10T00:43:03.624Z,38.97
2023-04-10T00:45:31.800Z,38.77
2023-04-10T00:47:59.869Z,37.83
2023-04-10T00:50:28.006Z,39.03
2023-04-10T00:52:57.220Z,39.07
2023-04-10T00:55:25.294Z,39.07
2023-04-10T00:57:57.121Z,39.57
2023-04-10T01:00:25.240Z,40.17
2023-04-10T01:02:53.315Z,41.93
2023-04-10T01:05:21.537Z,40.60
2023-04-10T01:08:02.247Z,42.63
2023-04-10T01:10:39.483Z,40.27
2023-04-10T01:13:17.208Z,40.07
2023-04-10T01:15:53.074Z,37.03
2023-04-10T01:18:27.758Z,36.07
2023-04-10T01:20:56.726Z,36.47
2023-04-10T01:24:03.347Z,36.00
2023-04-10T01:26:43.275Z,35.53
2023-04-10T01:29:16.935Z,37.17
2023-04-10T01:31:53.324Z,38.87
2023-04-10T01:34:24.142Z,40.10
2023-04-10T01:36:57.160Z,39.20
2023-04-10T01:39:26.238Z,42.87
2023-04-10T01:41:56.269Z,41.17
2023-04-10T01:44:29.206Z,40.43
2023-04-10T01:46:58.140Z,43.23
2023-04-10T01:49:29.318Z,43.93
2023-04-10T01:52:02.272Z,40.77
2023-04-10T01:54:32.725Z,41.23
2023-04-10T01:57:02.124Z,41.40
2023-04-10T01:59:31.613Z,43.87
2023-04-10T02:02:00.800Z,44.60
2023-04-10T02:04:29.121Z,44.00
2023-04-10T02:07:04.545Z,44.43
2023-04-10T02:09:41.918Z,43.93
2023-04-10T02:12:14.382Z,45.60
2023-04-10T02:14:48.866Z,45.33
2023-04-10T02:17:21.931Z,46.83
2023-04-10T02:19:52.105Z,48.07
2023-04-10T02:22:20.591Z,45.80
2023-04-10T02:24:50.939Z,48.87
2023-04-10T02:27:28.538Z,50.00
2023-04-10T02:29:57.881Z,47.83
2023-04-10T02:32:26.336Z,50.80
2023-04-10T02:34:54.598Z,51.30
2023-04-10T02:37:22.850Z,48.93
2023-04-10T02:39:51.241Z,50.67
2023-04-10T02:42:19.296Z,51.37
2023-04-10T02:44:49.038Z,56.30
2023-04-10T02:47:18.805Z,53.33
2023-04-10T02:49:51.115Z,57.93
2023-04-10T02:52:19.099Z,59.27
2023-04-10T02:54:47.485Z,61.43
2023-04-10T02:57:15.503Z,65.70
2023-04-10T02:59:43.459Z,61.13
2023-04-10T03:02:11.665Z,64.13
2023-04-10T03:04:41.728Z,63.57
2023-04-10T03:07:09.878Z,66.60
2023-04-10T03:09:37.854Z,68.33
2023-04-10T03:12:05.878Z,67.97
2023-04-10T03:14:35.654Z,70.93
2023-04-10T03:17:03.695Z,70.57
2023-04-10T03:19:31.658Z,70.60
2023-04-10T03:22:01.219Z,79.10
2023-04-10T03:24:29.172Z,75.90
2023-04-10T03:26:57.746Z,76.53
2023-04-10T03:29:25.753Z,75.47
2023-04-10T03:31:54.003Z,72.93
2023-04-10T03:34:22.046Z,83.90
2023-04-10T03:36:49.991Z,74.33
2023-04-10T03:39:19.595Z,74.60
2023-04-10T03:41:47.566Z,76.47
2023-04-10T03:44:15.651Z,78.90
2023-04-10T03:46:43.874Z,78.87
2023-04-10T03:49:11.887Z,71.37
2023-04-10T03:51:39.837Z,74.47
2023-04-10T03:54:07.805Z,82.10
2023-04-10T03:56:37.126Z,78.37
2023-04-10T03:59:05.100Z,72.37
2023-04-10T04:01:34.813Z,80.80
2023-04-10T04:04:03.015Z,83.40
2023-04-10T04:06:31.243Z,88.20
2023-04-10T04:08:59.319Z,84.73
2023-04-10T04:11:27.773Z,88.07
2023-04-10T04:13:57.156Z,94.10
2023-04-10T04:16:25.386Z,91.33
2023-04-10T04:18:53.371Z,96.47
2023-04-10T04:21:21.331Z,92.37
2023-04-10T04:23:49.315Z,92.83
2023-04-10T04:26:17.291Z,94.90
2023-04-10T04:28:45.274Z,96.13
2023-04-10T04:31:14.598Z,92.70
2023-04-10T04:33:42.553Z,93.63
2023-04-10T04:36:10.618Z,93.83
2023-04-10T04:38:38.744Z,97.63
2023-04-10T04:41:07.131Z,107.47
2023-04-10T04:43:35.101Z,110.20
2023-04-10T04:46:03.127Z,107.67
2023-04-10T04:48:32.477Z,106.60
2023-04-10T04:51:00.447Z,109.77
2023-04-10T04:53:28.457Z,104.97
2023-04-10T04:55:56.439Z,107.43
2023-04-10T04:58:24.676Z,105.47
2023-04-10T05:00:53.046Z,103.03
2023-04-10T05:03:21.228Z,107.63
2023-04-10T05:05:50.827Z,109.50
2023-04-10T05:08:18.774Z,116.97
2023-04-10T05:10:49.089Z,117.73
2023-04-10T05:13:17.556Z,115.47
2023-04-10T05:15:45.949Z,112.17
2023-04-10T05:18:14.242Z,112.60
2023-04-10T05:20:42.322Z,118.13
2023-04-10T05:23:11.717Z,97.43
2023-04-10T05:25:39.725Z,108.90
2023-04-10T05:28:07.700Z,115.53
2023-04-10T05:30:35.684Z,118.17
2023-04-10T05:33:03.774Z,107.53
2023-04-10T05:35:31.821Z,100.73
2023-04-10T05:38:00.722Z,107.77
2023-04-10T05:40:30.333Z,100.47
2023-04-10T05:42:58.659Z,94.03
2023-04-10T05:45:28.565Z,97.00
2023-04-10T05:47:56.570Z,99.97
2023-04-10T05:50:24.557Z,115.80
2023-04-10T05:52:52.545Z,105.77
2023-04-10T05:55:20.580Z,100.67
2023-04-10T05:57:51.352Z,107.17
2023-04-10T06:00:19.800Z,111.33
2023-04-10T06:02:47.900Z,103.30
2023-04-10T06:05:15.999Z,99.40
2023-04-10T06:07:43.989Z,110.33
2023-04-10T06:10:12.242Z,102.73
2023-04-10T06:12:40.471Z,105.70
2023-04-10T06:15:10.744Z,105.70
2023-04-10T06:17:44.375Z,100.37
2023-04-10T06:20:13.462Z,105.77
2023-04-10T06:22:41.894Z,92.90
2023-04-10T06:25:11.413Z,94.83
2023-04-10T06:27:39.445Z,94.70
2023-04-10T06:30:10.528Z,80.57
2023-04-10T06:32:38.580Z,89.10
2023-04-10T06:35:07.281Z,86.57
2023-04-10T06:37:36.867Z,80.90
2023-04-10T06:40:09.574Z,76.37
2023-04-10T06:42:38.053Z,77.53
2023-04-10T06:45:06.879Z,73.67
2023-04-10T06:47:36.716Z,71.33
2023-04-10T06:50:04.964Z,73.47
2023-04-10T06:52:33.725Z,69.43
2023-04-10T06:55:03.995Z,70.97
2023-04-10T06:57:31.958Z,70.77
2023-04-10T06:59:59.910Z,65.43
2023-04-10T07:02:28.079Z,71.37
2023-04-10T07:04:57.532Z,63.53
2023-04-10T07:07:25.630Z,62.20
2023-04-10T07:09:54.845Z,64.13
2023-04-10T07:12:23.368Z,64.20
2023-04-10T07:14:51.349Z,65.30
2023-04-10T07:17:19.398Z,60.07
2023-04-10T07:19:47.608Z,60.73
2023-04-10T07:22:17.068Z,57.33
2023-04-10T07:24:45.357Z,59.60
2023-04-10T07:27:13.625Z,58.53
2023-04-10T07:29:41.626Z,55.70
2023-04-10T07:32:12.408Z,49.90
2023-04-10T07:34:42.078Z,56.97
2023-04-10T07:37:12.736Z,55.13
2023-04-10T07:39:42.350Z,54.80
2023-04-10T07:42:12.747Z,65.40
2023-04-10T07:44:40.783Z,56.10
2023-04-10T07:47:11.383Z,57.17
2023-04-10T07:49:39.354Z,56.93
2023-04-10T07:52:07.399Z,54.70
2023-04-10T07:54:35.811Z,57.67
2023-04-10T07:57:05.423Z,58.77
2023-04-10T07:59:34.689Z,60.00
2023-04-10T08:02:05.360Z,59.20
2023-04-10T08:04:33.685Z,57.00
2023-04-10T08:07:02.201Z,54.60
2023-04-10T08:09:32.911Z,53.83
2023-04-10T08:12:00.906Z,58.53
2023-04-10T08:14:31.352Z,56.27
2023-04-10T08:16:59.426Z,53.70
2023-04-10T08:19:28.724Z,55.77
2023-04-10T08:21:56.687Z,53.13
2023-04-10T08:24:24.674Z,51.80
2023-04-10T08:26:52.628Z,54.47
2023-04-10T08:29:20.624Z,54.73
2023-04-10T08:31:50.366Z,55.30
2023-04-10T08:34:18.381Z,54.97
2023-04-10T08:36:46.339Z,53.33
2023-04-10T08:39:14.304Z,51.27
2023-04-10T08:41:42.989Z,53.33
2023-04-10T08:44:11.135Z,54.40
2023-04-10T08:46:44.507Z,49.27
2023-04-10T08:49:23.037Z,52.77
2023-04-10T08:51:58.904Z,53.93
2023-04-10T08:54:29.424Z,48.23
2023-04-10T08:57:01.365Z,47.03
2023-04-10T08:59:30.804Z,48.10
2023-04-10T09:01:59.671Z,49.30
2023-04-10T09:04:30.595Z,49.23
2023-04-10T09:06:58.671Z,45.63
2023-04-10T09:09:27.258Z,43.37
2023-04-10T09:12:01.564Z,45.87
2023-04-10T09:14:31.829Z,44.40
2023-04-10T09:17:22.861Z,40.87
2023-04-10T09:19:54.686Z,33.57
2023-04-10T09:22:31.351Z,31.70
2023-04-10T09:25:00.534Z,28.70
2023-04-10T09:27:33.569Z,27.93
2023-04-10T09:30:02.450Z,26.93
2023-04-10T09:32:48.531Z,38.83
2023-04-10T09:35:18.241Z,35.77
2023-04-10T09:37:47.034Z,28.67
2023-04-10T09:40:23.930Z,27.37
2023-04-10T09:42:52.080Z,25.90
2023-04-10T09:45:22.436Z,25.37
2023-04-10T09:48:03.576Z,24.03
2023-04-10T09:50:39.963Z,25.37
2023-04-10T09:53:09.160Z,23.90
2023-04-10T09:55:37.838Z,23.63
2023-04-10T09:58:06.563Z,24.90
2023-04-10T10:00:42.099Z,21.37
2023-04-10T10:03:13.492Z,23.30
2023-04-10T10:05:44.762Z,26.10
2023-04-10T10:08:14.113Z,23.47
2023-04-10T10:10:47.064Z,27.23
2023-04-10T10:13:18.838Z,25.80
2023-04-10T10:15:52.817Z,23.57
2023-04-10T10:18:27.188Z,26.03
2023-04-10T10:20:56.811Z,25.23
2023-04-10T10:23:26.018Z,21.93
2023-04-10T10:25:55.918Z,23.53
2023-04-10T10:28:25.203Z,20.93
2023-04-10T10:30:54.378Z,24.13
2023-04-10T10:33:24.450Z,24.30
2023-04-10T10:35:54.194Z,22.40
2023-04-10T10:38:23.960Z,19.30
2023-04-10T10:41:01.991Z,19.80
2023-04-10T10:43:38.838Z,21.10
2023-04-10T10:46:13.632Z,20.40
2023-04-10T10:48:41.683Z,17.57
2023-04-10T10:51:09.658Z,18.53
2023-04-10T10:53:41.304Z,20.47
2023-04-10T10:56:37.111Z,18.90
2023-04-10T10:59:05.254Z,22.77
2023-04-10T11:01:33.326Z,30.00
2023-04-10T11:04:02.331Z,30.57
2023-04-10T11:06:49.792Z,37.40
2023-04-10T11:09:50.519Z,36.17
2023-04-10T11:12:20.350Z,41.30
2023-04-10T11:14:59.434Z,42.97
2023-04-10T11:17:51.283Z,42.53
2023-04-10T11:20:25.747Z,42.73
2023-04-10T11:23:13.463Z,38.17
2023-04-10T11:25:53.543Z,37.63
2023-04-10T11:28:38.429Z,36.37
2023-04-10T11:31:22.968Z,36.97
2023-04-10T11:34:03.032Z,36.27
2023-04-10T11:36:32.118Z,30.23
2023-04-10T11:39:01.071Z,27.10
2023-04-10T11:41:32.549Z,26.33
2023-04-10T11:44:02.376Z,27.70
2023-04-10T11:46:31.925Z,27.47
2023-04-10T11:49:02.238Z,25.07
2023-04-10T11:51:31.063Z,32.67
2023-04-10T11:54:09.602Z,33.97
2023-04-10T11:56:41.343Z,46.83
2023-04-10T11:59:11.317Z,42.97
2023-04-10T12:01:42.484Z,45.60
2023-04-10T12:04:21.627Z,38.67
2023-04-10T12:06:52.398Z,40.70
2023-04-10T12:09:22.388Z,38.43
2023-04-10T12:11:53.108Z,42.70
2023-04-10T12:14:22.159Z,51.53
2023-04-10T12:16:55.014Z,51.87
2023-04-10T12:19:23.840Z,51.60
2023-04-10T12:21:54.283Z,49.77
2023-04-10T12:24:43.969Z,49.43
2023-04-10T12:27:18.736Z,50.30
2023-04-10T12:29:47.416Z,56.90
2023-04-10T12:32:15.918Z,50.40
2023-04-10T12:34:50.474Z,50.37
2023-04-10T12:37:20.128Z,46.90
2023-04-10T12:39:48.081Z,47.37
2023-04-10T12:42:20.686Z,44.13
2023-04-10T12:44:55.057Z,47.23
2023-04-10T12:47:24.164Z,52.33
2023-04-10T12:50:06.127Z,46.97
2023-04-10T12:52:34.274Z,49.57
2023-04-10T12:55:16.462Z,46.53
2023-04-10T12:57:48.125Z,42.07
2023-04-10T13:00:17.904Z,43.70
2023-04-10T13:02:46.657Z,40.03
2023-04-10T13:05:15.966Z,40.97
2023-04-10T13:07:44.054Z,43.53
2023-04-10T13:10:12.375Z,43.13
2023-04-10T13:12:41.916Z,37.87
2023-04-10T13:15:11.862Z,45.07
2023-04-10T13:17:41.113Z,39.03
2023-04-10T13:20:13.430Z,38.43
2023-04-10T13:22:44.837Z,37.80
2023-04-10T13:25:12.822Z,34.47
2023-04-10T13:27:40.826Z,34.33
2023-04-10T13:30:11.456Z,32.53
2023-04-10T13:32:39.441Z,30.93
2023-04-10T13:35:11.452Z,28.43
2023-04-10T13:37:39.644Z,28.20
2023-04-10T13:40:09.343Z,21.83
2023-04-10T13:42:39.876Z,18.50
2023-04-10T13:45:11.589Z,14.23
2023-04-10T13:47:39.698Z,18.03
2023-04-10T13:50:08.639Z,39.57
2023-04-10T13:52:36.627Z,36.23
2023-04-10T13:55:05.455Z,36.23
2023-04-10T13:57:34.856Z,32.93
2023-04-10T14:00:07.448Z,15.93
2023-04-10T14:02:37.109Z,16.97
2023-04-10T14:05:06.352Z,27.30
2023-04-10T14:07:34.340Z,27.40
2023-04-10T14:10:02.976Z,29.13
2023-04-10T14:12:30.971Z,24.73
2023-04-10T14:15:00.018Z,15.47
2023-04-10T14:17:28.089Z,11.67
2023-04-10T14:19:57.596Z,13.03
2023-04-10T14:22:25.611Z,11.57
2023-04-10T14:25:05.160Z,11.67
2023-04-10T14:27:37.688Z,13.30
2023-04-10T14:30:06.988Z,13.77
2023-04-10T14:32:35.171Z,14.47
2023-04-10T14:35:04.764Z,16.33
2023-04-10T14:37:32.773Z,13.30
2023-04-10T14:40:00.764Z,15.17
2023-04-10T14:42:28.965Z,12.97
2023-04-10T14:44:58.741Z,12.23
2023-04-10T14:47:26.949Z,15.60
2023-04-10T14:49:55.036Z,15.57
2023-04-10T14:52:24.968Z,9.03
2023-04-10T14:54:52.965Z,9.87
2023-04-10T14:57:21.167Z,7.57
2023-04-10T14:59:49.207Z,8.73
2023-04-10T15:02:17.229Z,7.07
2023-04-10T15:04:45.357Z,7.40
2023-04-10T15:07:14.134Z,7.00
2023-04-10T15:09:46.268Z,7.50
2023-04-10T15:12:14.599Z,7.27
2023-04-10T15:14:42.874Z,6.57
2023-04-10T15:17:13.138Z,6.77
2023-04-10T15:19:41.258Z,7.53
2023-04-10T15:22:09.302Z,7.97
2023-04-10T15:24:49.408Z,8.17
2023-04-10T15:27:22.248Z,8.87
2023-04-10T15:29:50.454Z,6.97
2023-04-10T15:32:18.622Z,7.20
2023-04-10T15:34:46.652Z,6.97
2023-04-10T15:37:14.915Z,10.03
2023-04-10T15:39:42.895Z,9.63
2023-04-10T15:42:13.633Z,8.03
2023-04-10T15:44:43.286Z,10.27
2023-04-10T15:47:13.930Z,11.03
2023-04-10T15:49:41.881Z,10.50
2023-04-10T15:52:10.173Z,19.93
2023-04-10T15:54:39.820Z,24.20
2023-04-10T15:57:07.811Z,28.23
2023-04-10T15:59:38.047Z,35.07
2023-04-10T16:02:07.899Z,54.07
2023-04-10T16:04:36.219Z,52.33
2023-04-10T16:07:04.411Z,57.00
2023-04-10T16:09:32.392Z,60.87
2023-04-10T16:12:01.903Z,61.37
2023-04-10T16:14:31.110Z,58.83
2023-04-10T16:16:59.096Z,60.70
2023-04-10T16:19:31.077Z,65.60
2023-04-10T16:21:59.129Z,70.10
2023-04-10T16:24:27.077Z,71.07
2023-04-10T16:26:55.173Z,72.17
2023-04-10T16:29:23.154Z,78.27
2023-04-10T16:31:51.216Z,75.63
2023-04-10T16:34:19.279Z,75.07
2023-04-10T16:36:48.665Z,81.90
2023-04-10T16:39:16.856Z,79.57
2023-04-10T16:41:45.334Z,80.63
2023-04-10T16:44:13.392Z,83.97
2023-04-10T16:46:41.445Z,79.97
2023-04-10T16:49:10.956Z,76.13
2023-04-10T16:51:39.038Z,77.37
2023-04-10T16:54:08.489Z,79.37
2023-04-10T16:56:36.450Z,78.00
2023-04-10T16:59:04.449Z,83.63
2023-04-10T17:01:39.598Z,84.90
2023-04-10T17:04:08.006Z,84.70
2023-04-10T17:06:36.152Z,80.27
2023-04-10T17:09:04.226Z,82.70
2023-04-10T17:11:33.605Z,79.23
2023-04-10T17:14:01.598Z,82.87
2023-04-10T17:16:29.674Z,78.47
2023-04-10T17:18:58.111Z,79.77
2023-04-10T17:21:27.187Z,79.43
2023-04-10T17:23:55.180Z,80.70
2023-04-10T17:26:26.821Z,81.60
2023-04-10T17:28:58.421Z,80.60
2023-04-10T17:31:26.698Z,85.80
2023-04-10T17:33:54.728Z,86.10
2023-04-10T17:36:22.785Z,84.73
2023-04-10T17:38:54.263Z,84.57
2023-04-10T17:41:22.432Z,80.40
2023-04-10T17:43:50.898Z,87.37
2023-04-10T17:46:20.253Z,83.30
2023-04-10T17:48:48.328Z,82.53
2023-04-10T17:51:19.086Z,86.37
2023-04-10T17:53:47.185Z,83.30
2023-04-10T17:56:20.811Z,86.13
2023-04-10T17:58:48.932Z,87.70
2023-04-10T18:01:29.640Z,83.77
2023-04-10T18:03:59.124Z,59.10
2023-04-10T18:06:27.710Z,45.43
2023-04-10T18:08:57.972Z,34.23
2023-04-10T18:11:26.207Z,19.70
2023-04-10T18:13:54.340Z,15.90
2023-04-10T18:16:26.150Z,11.80
2023-04-10T18:18:57.516Z,9.93
2023-04-10T18:21:27.247Z,7.80
2023-04-10T18:23:58.842Z,7.93
2023-04-10T18:26:29.406Z,8.43
2023-04-10T18:29:01.483Z,7.10
2023-04-10T18:31:31.085Z,5.67
2023-04-10T18:34:08.190Z,5.13
2023-04-10T18:36:41.468Z,4.60
2023-04-10T18:39:15.428Z,6.93
2023-04-10T18:41:51.167Z,6.97
2023-04-10T18:44:25.167Z,6.23
2023-04-10T18:47:04.868Z,5.60
2023-04-10T18:49:47.515Z,4.93
2023-04-10T18:52:16.080Z,5.37
2023-04-10T18:55:31.076Z,4.67
2023-04-10T18:58:01.866Z,5.83
2023-04-10T19:00:36.759Z,5.50
2023-04-10T19:03:22.941Z,6.43
2023-04-10T19:06:07.980Z,7.80
2023-04-10T19:08:43.964Z,6.20
2023-04-10T19:11:29.890Z,5.73
2023-04-10T19:14:30.155Z,6.53
2023-04-10T19:17:21.061Z,6.03
2023-04-10T19:20:51.230Z,10.83
2023-04-10T19:23:14.118Z,7.90
2023-04-10T19:25:45.694Z,7.50
2023-04-10T19:28:28.030Z,9.03
2023-04-10T19:31:04.718Z,9.30
2023-04-10T19:33:38.367Z,10.43
2023-04-10T19:36:23.855Z,11.87
2023-04-10T19:38:57.671Z,14.70
2023-04-10T19:41:31.235Z,13.53
2023-04-10T19:44:03.651Z,18.27
2023-04-10T19:46:39.333Z,17.13
2023-04-10T19:49:19.945Z,20.53
2023-04-10T19:51:56.580Z,15.67
2023-04-10T19:54:32.790Z,21.80
2023-04-10T19:57:04.755Z,24.63
2023-04-10T19:59:40.435Z,20.57
2023-04-10T20:02:13.749Z,20.17
2023-04-10T20:04:43.442Z,17.17
2023-04-10T20:07:19.509Z,16.60
2023-04-10T20:09:53.507Z,17.97
2023-04-10T20:12:25.987Z,13.53
2023-04-10T20:14:57.841Z,13.70
2023-04-10T20:17:33.841Z,17.30
2023-04-10T20:20:04.025Z,15.70
2023-04-10T20:22:33.864Z,14.87
2023-04-10T20:25:05.374Z,17.00
2023-04-10T20:27:35.568Z,15.47
2023-04-10T20:30:04.640Z,15.53
2023-04-10T20:32:35.130Z,16.00
2023-04-10T20:35:03.273Z,16.80
2023-04-10T20:37:33.167Z,15.93
2023-04-10T20:40:04.981Z,16.97
2023-04-10T20:42:38.442Z,16.17
2023-04-10T20:45:10.086Z,16.47
2023-04-10T20:47:38.149Z,15.67
2023-04-10T20:50:07.103Z,15.97
2023-04-10T20:52:36.564Z,16.80
2023-04-10T20:55:06.894Z,17.23
2023-04-10T20:57:35.195Z,15.23
2023-04-10T21:00:03.392Z,14.50
2023-04-10T21:02:31.540Z,15.37
2023-04-10T21:05:02.101Z,16.60
2023-04-10T21:07:30.083Z,16.47
2023-04-10T21:09:58.145Z,15.73
2023-04-10T21:12:27.717Z,17.93
2023-04-10T21:14:55.736Z,19.70
2023-04-10T21:17:24.343Z,19.37
2023-04-10T21:19:52.302Z,19.57
2023-04-10T21:22:20.258Z,20.87
2023-04-10T21:24:48.253Z,21.70
2023-04-10T21:27:16.219Z,21.90
2023-04-10T21:29:47.116Z,21.67
2023-04-10T21:32:15.296Z,19.97
2023-04-10T21:34:43.356Z,22.57
2023-04-10T21:37:11.374Z,22.67
2023-04-10T21:39:41.299Z,21.00
2023-04-10T21:42:09.307Z,21.47
2023-04-10T21:44:37.279Z,21.67
2023-04-10T21:47:06.668Z,21.27
2023-04-10T21:49:34.892Z,19.97
2023-04-10T21:52:02.870Z,22.03
2023-04-10T21:54:33.523Z,22.17
2023-04-10T21:57:01.736Z,18.23
2023-04-10T21:59:31.603Z,20.90
2023-04-10T22:01:59.690Z,20.83
2023-04-10T22:04:29.070Z,22.80
2023-04-10T22:06:57.040Z,22.57
2023-04-10T22:09:25.008Z,23.30
2023-04-10T22:11:52.992Z,24.30
2023-04-10T22:14:21.492Z,24.57
2023-04-10T22:16:51.051Z,24.67
2023-04-10T22:19:19.110Z,25.57
2023-04-10T22:21:48.462Z,24.87
2023-04-10T22:24:16.741Z,23.30
2023-04-10T22:26:46.049Z,23.17
2023-04-10T22:29:14.898Z,23.13
2023-04-10T22:31:43.255Z,22.90
2023-04-10T22:34:11.802Z,23.03
2023-04-10T22:36:39.806Z,26.87
2023-04-10T22:39:09.169Z,26.47
2023-04-10T22:41:37.222Z,29.67
2023-04-10T22:44:07.303Z,31.17
2023-04-10T22:46:35.464Z,33.67
2023-04-10T22:49:03.493Z,30.70
2023-04-10T22:51:34.503Z,36.73
2023-04-10T22:54:02.493Z,31.13
2023-04-10T22:56:34.824Z,29.60
2023-04-10T22:59:02.789Z,30.47
2023-04-10T23:01:30.934Z,29.13
2023-04-10T23:03:59.025Z,29.60
2023-04-10T23:06:27.159Z,28.33
2023-04-10T23:08:55.392Z,27.93
2023-04-10T23:11:23.751Z,24.90
2023-04-10T23:13:53.070Z,23.40
2023-04-10T23:16:22.859Z,24.40
2023-04-10T23:18:51.049Z,22.63
2023-04-10T23:21:19.593Z,20.53
2023-04-10T23:23:47.595Z,21.70
2023-04-10T23:26:15.898Z,21.97
2023-04-10T23:28:44.165Z,24.73
2023-04-10T23:31:13.602Z,22.43
2023-04-10T23:33:41.664Z,30.63
2023-04-10T23:36:10.291Z,20.10
2023-04-10T23:38:38.262Z,21.10
2023-04-10T23:41:07.066Z,20.00
2023-04-10T23:43:35.227Z,26.17
2023-04-10T23:46:05.593Z,18.93
2023-04-10T23:48:34.961Z,19.00
2023-04-10T23:51:06.681Z,17.87
2023-04-10T23:53:36.060Z,17.80
2023-04-10T23:56:04.012Z,18.97
2023-04-10T23:58:32.001Z,19.70
